createdAt,value
2022-09-30T00:01:04.267Z,11.04
2022-09-30T00:06:08.768Z,11.01
2022-09-30T00:11:17.794Z,11.00
2022-09-30T00:16:21.567Z,10.99
2022-09-30T00:21:24.642Z,10.99
2022-09-30T00:26:26.935Z,10.99
2022-09-30T00:31:32.682Z,10.97
2022-09-30T00:36:38.932Z,10.97
2022-09-30T00:41:41.327Z,10.99
2022-09-30T00:46:45.036Z,10.99
2022-09-30T00:51:54.683Z,10.99
2022-09-30T00:57:00.754Z,11.01
2022-09-30T01:02:02.895Z,11.00
2022-09-30T01:07:08.708Z,11.01
2022-09-30T01:12:18.910Z,11.02
2022-09-30T01:17:51.848Z,11.01
2022-09-30T01:23:15.136Z,11.01
2022-09-30T01:28:38.108Z,11.00
2022-09-30T01:34:12.077Z,10.99
2022-09-30T01:39:42.146Z,10.98
2022-09-30T01:44:55.697Z,10.97
2022-09-30T01:50:09.542Z,10.96
2022-09-30T01:55:27.346Z,10.94
2022-09-30T02:00:35.108Z,10.93
2022-09-30T02:05:43.954Z,10.94
2022-09-30T02:10:53.147Z,10.91
2022-09-30T02:16:00.675Z,10.88
2022-09-30T02:21:04.882Z,10.86
2022-09-30T02:26:10.432Z,10.84
2022-09-30T02:31:15.285Z,10.83
2022-09-30T02:36:32.104Z,10.84
2022-09-30T02:41:47.828Z,10.83
2022-09-30T02:47:10.183Z,10.83
2022-09-30T02:52:24.974Z,10.82
2022-09-30T02:57:44.200Z,10.82
2022-09-30T03:02:46.066Z,10.81
2022-09-30T03:07:47.862Z,10.80
2022-09-30T03:13:28.660Z,10.72
2022-09-30T03:19:09.281Z,10.71
2022-09-30T03:24:32.819Z,10.69
2022-09-30T03:29:42.254Z,10.69
2022-09-30T03:34:58.022Z,10.68
2022-09-30T03:40:11.902Z,10.69
2022-09-30T03:45:30.532Z,10.69
2022-09-30T03:50:34.866Z,10.69
2022-09-30T03:55:49.385Z,10.70
2022-09-30T04:00:54.570Z,10.70
2022-09-30T04:05:56.482Z,10.69
2022-09-30T04:10:58.477Z,10.66
2022-09-30T04:16:00.444Z,10.63
2022-09-30T04:21:12.547Z,10.60
2022-09-30T04:26:15.983Z,10.56
2022-09-30T04:31:19.644Z,10.51
2022-09-30T04:36:21.593Z,10.46
2022-09-30T04:41:23.718Z,10.40
2022-09-30T04:46:25.937Z,10.30
2022-09-30T04:51:27.807Z,10.26
2022-09-30T04:56:29.932Z,10.24
2022-09-30T05:01:31.856Z,10.17
2022-09-30T05:06:34.071Z,10.12
2022-09-30T05:11:38.233Z,10.11
2022-09-30T05:16:40.095Z,10.07
2022-09-30T05:21:44.970Z,10.06
2022-09-30T05:26:46.925Z,10.03
2022-09-30T05:31:48.829Z,10.05
2022-09-30T05:36:50.862Z,10.09
2022-09-30T05:41:52.763Z,10.12
2022-09-30T05:46:54.755Z,10.13
2022-09-30T05:51:56.791Z,10.15
2022-09-30T05:56:58.957Z,10.20
2022-09-30T06:02:01.611Z,10.20
2022-09-30T06:07:08.237Z,10.20
2022-09-30T06:12:12.383Z,10.24
2022-09-30T06:17:14.287Z,10.34
2022-09-30T06:22:18.251Z,10.42
2022-09-30T06:27:20.266Z,10.53
2022-09-30T06:32:22.147Z,10.64
2022-09-30T06:37:25.445Z,10.72
2022-09-30T06:42:27.425Z,10.81
2022-09-30T06:47:29.268Z,10.87
2022-09-30T06:52:31.136Z,10.95
2022-09-30T06:57:33.272Z,11.04
2022-09-30T07:02:36.185Z,11.15
2022-09-30T07:07:38.252Z,11.29
2022-09-30T07:12:41.200Z,11.40
2022-09-30T07:17:44.248Z,11.50
2022-09-30T07:22:46.545Z,11.63
2022-09-30T07:27:49.012Z,11.66
2022-09-30T07:32:50.946Z,11.71
2022-09-30T07:37:52.859Z,11.79
2022-09-30T07:42:54.983Z,11.86
2022-09-30T07:47:59.863Z,11.92
2022-09-30T07:53:01.812Z,11.95
2022-09-30T07:58:06.329Z,12.00
2022-09-30T08:03:08.382Z,12.08
2022-09-30T08:08:11.785Z,12.14
2022-09-30T08:13:14.051Z,12.19
2022-09-30T08:18:16.128Z,12.25
2022-09-30T08:23:17.986Z,12.31
2022-09-30T08:28:20.046Z,12.39
2022-09-30T08:33:21.823Z,12.50
2022-09-30T08:38:23.636Z,12.63
2022-09-30T08:43:46.710Z,12.75
2022-09-30T08:49:03.529Z,12.85
2022-09-30T08:54:10.932Z,12.92
2022-09-30T08:59:26.932Z,13.06
2022-09-30T09:04:29.115Z,13.18
2022-09-30T09:10:00.348Z,13.24
2022-09-30T09:15:26.874Z,13.33
2022-09-30T09:20:41.462Z,13.49
2022-09-30T09:25:46.468Z,13.55
2022-09-30T09:30:53.689Z,13.67
2022-09-30T09:36:13.604Z,13.82
2022-09-30T09:41:44.291Z,13.96
2022-09-30T09:47:05.815Z,14.09
2022-09-30T09:52:13.487Z,14.14
2022-09-30T09:57:25.019Z,14.20
2022-09-30T10:02:30.280Z,14.23
2022-09-30T10:07:34.470Z,14.29
2022-09-30T10:12:36.598Z,14.30
2022-09-30T10:17:38.881Z,14.37
2022-09-30T10:22:41.562Z,14.47
2022-09-30T10:27:57.262Z,14.54
2022-09-30T10:33:02.382Z,14.57
2022-09-30T10:38:04.314Z,14.57
2022-09-30T10:43:06.213Z,14.63
2022-09-30T10:48:18.096Z,14.67
2022-09-30T10:53:27.198Z,14.70
2022-09-30T10:58:51.693Z,14.75
2022-09-30T11:04:05.988Z,14.79
2022-09-30T11:09:33.958Z,14.78
2022-09-30T11:14:42.417Z,14.77
2022-09-30T11:19:44.185Z,14.76
2022-09-30T11:24:50.418Z,14.82
2022-09-30T11:30:16.920Z,14.86
2022-09-30T11:35:37.445Z,14.87
2022-09-30T11:40:51.409Z,14.89
2022-09-30T11:46:02.289Z,14.92
2022-09-30T11:51:19.905Z,14.92
2022-09-30T11:56:59.417Z,14.88
2022-09-30T12:02:04.991Z,14.94
2022-09-30T12:07:15.128Z,14.97
2022-09-30T12:12:19.045Z,14.99
2022-09-30T12:17:34.012Z,15.07
2022-09-30T12:22:41.116Z,15.15
2022-09-30T12:27:49.603Z,15.20
2022-09-30T12:33:12.511Z,15.19
2022-09-30T12:38:17.754Z,15.18
2022-09-30T12:43:55.206Z,15.23
2022-09-30T12:49:06.007Z,15.19
2022-09-30T12:54:16.381Z,15.12
2022-09-30T12:59:30.368Z,15.17
2022-09-30T13:04:42.994Z,15.21
2022-09-30T13:10:27.804Z,15.20
2022-09-30T13:15:32.806Z,15.23
2022-09-30T13:20:56.897Z,15.26
2022-09-30T13:25:58.932Z,15.28
2022-09-30T13:31:32.376Z,15.25
2022-09-30T13:36:52.490Z,15.20
2022-09-30T13:42:07.247Z,15.21
2022-09-30T13:47:26.762Z,15.25
2022-09-30T13:52:33.213Z,15.27
2022-09-30T13:57:45.510Z,15.28
2022-09-30T14:03:11.152Z,15.30
2022-09-30T14:08:16.066Z,15.30
2022-09-30T14:14:01.172Z,15.29
2022-09-30T14:19:30.345Z,15.26
2022-09-30T14:24:38.027Z,15.28
2022-09-30T14:29:51.586Z,15.31
2022-09-30T14:34:53.755Z,15.27
2022-09-30T14:39:56.377Z,15.23
2022-09-30T14:45:06.165Z,15.21
2022-09-30T14:50:18.130Z,15.17
2022-09-30T14:55:27.034Z,15.15
2022-09-30T15:00:31.541Z,15.17
2022-09-30T15:05:36.358Z,15.16
2022-09-30T15:10:38.394Z,15.15
2022-09-30T15:15:40.788Z,15.14
2022-09-30T15:20:43.562Z,15.12
2022-09-30T15:25:45.741Z,15.11
2022-09-30T15:30:47.672Z,15.11
2022-09-30T15:35:50.451Z,15.11
2022-09-30T15:40:59.733Z,15.17
2022-09-30T15:46:19.727Z,15.24
2022-09-30T15:51:25.773Z,15.25
2022-09-30T15:56:28.290Z,15.20
2022-09-30T16:01:40.079Z,15.12
2022-09-30T16:06:42.251Z,15.02
2022-09-30T16:11:46.893Z,14.93
2022-09-30T16:16:54.731Z,14.84
2022-09-30T16:21:58.033Z,14.77
2022-09-30T16:27:20.156Z,14.71
2022-09-30T16:32:22.867Z,14.70
2022-09-30T16:37:24.803Z,14.63
2022-09-30T16:42:27.346Z,14.56
2022-09-30T16:47:29.158Z,14.46
2022-09-30T16:52:31.468Z,14.35
2022-09-30T16:57:33.466Z,14.23
2022-09-30T17:02:35.370Z,14.12
2022-09-30T17:07:37.204Z,14.02
2022-09-30T17:12:39.066Z,13.91
2022-09-30T17:17:40.932Z,13.79
2022-09-30T17:22:43.222Z,13.70
2022-09-30T17:27:50.071Z,13.61
2022-09-30T17:32:53.041Z,13.52
2022-09-30T17:37:56.364Z,13.48
2022-09-30T17:43:07.370Z,13.42
2022-09-30T17:48:10.805Z,13.38
2022-09-30T17:53:16.956Z,13.36
2022-09-30T17:58:19.361Z,13.37
2022-09-30T18:03:21.787Z,13.39
2022-09-30T18:08:25.136Z,13.39
2022-09-30T18:13:27.872Z,13.39
2022-09-30T18:18:29.862Z,13.43
2022-09-30T18:23:31.631Z,13.44
2022-09-30T18:28:33.558Z,13.43
2022-09-30T18:33:35.819Z,13.43
2022-09-30T18:38:37.669Z,13.42
2022-09-30T18:43:40.062Z,13.40
2022-09-30T18:48:41.910Z,13.36
2022-09-30T18:53:44.844Z,13.28
2022-09-30T18:58:49.145Z,13.25
2022-09-30T19:03:52.684Z,13.22
2022-09-30T19:08:54.442Z,13.23
2022-09-30T19:14:02.499Z,13.23
2022-09-30T19:19:10.478Z,13.23
2022-09-30T19:24:12.523Z,13.22
2022-09-30T19:29:14.304Z,13.20
2022-09-30T19:34:27.102Z,13.18
2022-09-30T19:39:42.475Z,13.16
2022-09-30T19:44:47.487Z,13.14
2022-09-30T19:49:49.352Z,13.12
2022-09-30T19:54:51.911Z,13.11
2022-09-30T19:59:53.945Z,13.08
2022-09-30T20:04:55.841Z,13.06
2022-09-30T20:09:57.743Z,13.03
2022-09-30T20:15:17.966Z,13.02
2022-09-30T20:20:34.793Z,13.02
2022-09-30T20:25:36.650Z,13.02
2022-09-30T20:30:45.650Z,13.01
2022-09-30T20:35:48.278Z,13.02
2022-09-30T20:40:57.374Z,13.01
2022-09-30T20:46:01.836Z,12.98
2022-09-30T20:51:08.523Z,12.98
2022-09-30T20:56:12.970Z,12.97
2022-09-30T21:01:20.126Z,12.96
2022-09-30T21:06:25.833Z,12.95
2022-09-30T21:11:27.608Z,12.94
2022-09-30T21:16:29.798Z,12.93
2022-09-30T21:21:32.115Z,12.90
2022-09-30T21:26:35.702Z,12.89
2022-09-30T21:31:38.096Z,12.86
2022-09-30T21:36:40.582Z,12.84
2022-09-30T21:41:43.056Z,12.80
2022-09-30T21:46:48.877Z,12.77
2022-09-30T21:51:53.708Z,12.73
2022-09-30T21:56:55.465Z,12.70
2022-09-30T22:01:57.388Z,12.67
2022-09-30T22:06:59.266Z,12.66
2022-09-30T22:12:08.742Z,12.64
2022-09-30T22:17:10.550Z,12.58
2022-09-30T22:22:12.383Z,12.56
2022-09-30T22:27:14.744Z,12.53
2022-09-30T22:32:16.754Z,12.52
2022-09-30T22:37:36.844Z,12.50
2022-09-30T22:42:38.784Z,12.50
2022-09-30T22:47:41.603Z,12.50
2022-09-30T22:52:43.426Z,12.51
2022-09-30T22:57:45.191Z,12.51
2022-09-30T23:02:46.909Z,12.51
2022-09-30T23:07:48.609Z,12.51
2022-09-30T23:12:52.206Z,12.50
2022-09-30T23:17:53.982Z,12.47
2022-09-30T23:22:55.932Z,12.45
2022-09-30T23:27:57.769Z,12.43
2022-09-30T23:32:59.539Z,12.42
2022-09-30T23:38:01.330Z,12.40
2022-09-30T23:43:03.060Z,12.39
2022-09-30T23:48:04.831Z,12.37
2022-09-30T23:53:06.633Z,12.37
2022-09-30T23:58:08.802Z,12.36
